createdAt,value
2022-09-16T00:00:29.893Z,41.94
2022-09-16T00:02:57.173Z,41.28
2022-09-16T00:05:24.075Z,41.58
2022-09-16T00:07:50.755Z,40.82
2022-09-16T00:10:18.364Z,42.43
2022-09-16T00:12:45.052Z,42.98
2022-09-16T00:15:12.184Z,45.59
2022-09-16T00:17:38.903Z,43.91
2022-09-16T00:20:09.376Z,43.84
2022-09-16T00:22:35.996Z,43.21
2022-09-16T00:25:02.716Z,42.98
2022-09-16T00:27:29.409Z,44.07
2022-09-16T00:29:56.045Z,44.29
2022-09-16T00:32:25.736Z,43.43
2022-09-16T00:34:52.825Z,42.61
2022-09-16T00:37:19.684Z,42.53
2022-09-16T00:39:49.843Z,41.79
2022-09-16T00:42:18.082Z,41.77
2022-09-16T00:45:02.210Z,42.33
2022-09-16T00:47:41.977Z,41.64
2022-09-16T00:50:12.789Z,43.38
2022-09-16T00:52:41.521Z,43.04
2022-09-16T00:55:12.115Z,42.61
2022-09-16T00:57:41.760Z,42.45
2022-09-16T01:00:11.838Z,41.66
2022-09-16T01:02:38.895Z,41.86
2022-09-16T01:05:12.319Z,39.80
2022-09-16T01:07:48.145Z,40.16
2022-09-16T01:10:18.097Z,39.24
2022-09-16T01:12:49.946Z,39.13
2022-09-16T01:15:18.039Z,38.20
2022-09-16T01:18:21.578Z,38.19
2022-09-16T01:21:13.717Z,38.00
2022-09-16T01:23:58.960Z,38.10
2022-09-16T01:26:50.958Z,39.20
2022-09-16T01:29:58.537Z,38.05
2022-09-16T01:32:49.900Z,39.77
2022-09-16T01:35:25.302Z,39.74
2022-09-16T01:38:07.159Z,42.42
2022-09-16T01:41:09.219Z,44.50
2022-09-16T01:43:41.451Z,43.81
2022-09-16T01:46:19.828Z,43.65
2022-09-16T01:48:58.133Z,43.16
2022-09-16T01:51:29.547Z,43.99
2022-09-16T01:54:08.361Z,44.18
2022-09-16T01:57:08.419Z,43.95
2022-09-16T01:59:42.961Z,46.11
2022-09-16T02:02:29.515Z,44.95
2022-09-16T02:05:00.020Z,43.87
2022-09-16T02:07:33.294Z,42.68
2022-09-16T02:10:08.928Z,43.48
2022-09-16T02:12:39.899Z,42.62
2022-09-16T02:15:11.018Z,41.96
2022-09-16T02:17:44.855Z,41.93
2022-09-16T02:20:24.723Z,42.40
2022-09-16T02:23:12.432Z,44.42
2022-09-16T02:25:40.442Z,43.81
2022-09-16T02:28:13.181Z,43.74
2022-09-16T02:30:47.998Z,45.07
2022-09-16T02:33:17.861Z,44.48
2022-09-16T02:35:48.563Z,44.21
2022-09-16T02:38:23.408Z,44.96
2022-09-16T02:40:57.288Z,44.35
2022-09-16T02:43:25.464Z,44.25
2022-09-16T02:46:23.232Z,43.59
2022-09-16T02:49:22.745Z,43.64
2022-09-16T02:52:14.599Z,44.59
2022-09-16T02:54:56.213Z,44.51
2022-09-16T02:57:23.058Z,44.96
2022-09-16T02:59:50.656Z,45.71
2022-09-16T03:02:17.571Z,45.01
2022-09-16T03:04:45.303Z,44.72
2022-09-16T03:07:13.692Z,44.21
2022-09-16T03:09:44.105Z,44.32
2022-09-16T03:12:36.579Z,44.79
2022-09-16T03:15:34.721Z,44.97
2022-09-16T03:18:27.906Z,45.02
2022-09-16T03:21:07.257Z,45.09
2022-09-16T03:23:45.577Z,45.01
2022-09-16T03:26:43.221Z,44.39
2022-09-16T03:29:22.807Z,44.56
2022-09-16T03:31:49.365Z,44.72
2022-09-16T03:34:30.299Z,44.64
2022-09-16T03:37:02.235Z,43.91
2022-09-16T03:39:29.730Z,43.90
2022-09-16T03:42:01.632Z,46.83
2022-09-16T03:44:32.842Z,46.01
2022-09-16T03:46:59.561Z,45.06
2022-09-16T03:49:26.220Z,45.64
2022-09-16T03:51:52.842Z,43.73
2022-09-16T03:54:19.416Z,43.78
2022-09-16T03:56:46.036Z,45.21
2022-09-16T03:59:12.639Z,45.16
2022-09-16T04:01:39.483Z,46.37
2022-09-16T04:04:06.218Z,46.23
2022-09-16T04:06:32.907Z,46.08
2022-09-16T04:09:02.281Z,46.16
2022-09-16T04:11:31.715Z,46.09
2022-09-16T04:13:59.158Z,45.92
2022-09-16T04:16:26.032Z,45.64
2022-09-16T04:18:52.676Z,45.02
2022-09-16T04:21:19.420Z,46.29
2022-09-16T04:23:46.077Z,46.15
2022-09-16T04:26:12.685Z,45.65
2022-09-16T04:28:39.322Z,45.69
2022-09-16T04:31:12.168Z,45.42
2022-09-16T04:33:39.268Z,45.25
2022-09-16T04:36:14.543Z,44.40
2022-09-16T04:38:43.019Z,43.94
2022-09-16T04:41:18.930Z,44.27
2022-09-16T04:43:46.174Z,44.23
2022-09-16T04:46:13.645Z,44.14
2022-09-16T04:48:43.207Z,44.52
2022-09-16T04:51:12.195Z,44.59
2022-09-16T04:53:41.578Z,45.06
2022-09-16T04:56:14.728Z,46.32
2022-09-16T04:58:50.204Z,45.82
2022-09-16T05:01:25.816Z,45.65
2022-09-16T05:03:55.551Z,45.94
2022-09-16T05:06:24.467Z,45.70
2022-09-16T05:08:53.720Z,44.99
2022-09-16T05:11:23.228Z,44.68
2022-09-16T05:13:49.955Z,44.78
2022-09-16T05:16:21.797Z,44.85
2022-09-16T05:18:51.045Z,44.07
2022-09-16T05:21:20.318Z,43.37
2022-09-16T05:23:48.160Z,43.60
2022-09-16T05:26:20.327Z,42.89
2022-09-16T05:28:47.452Z,42.67
2022-09-16T05:31:26.625Z,41.75
2022-09-16T05:34:00.727Z,45.41
2022-09-16T05:36:30.176Z,44.77
2022-09-16T05:39:21.609Z,44.55
2022-09-16T05:41:44.841Z,44.21
2022-09-16T05:44:11.532Z,44.32
2022-09-16T05:46:40.654Z,44.10
2022-09-16T05:49:08.563Z,43.47
2022-09-16T05:51:38.059Z,42.98
2022-09-16T05:54:05.132Z,41.91
2022-09-16T05:56:31.712Z,40.40
2022-09-16T05:59:00.509Z,41.43
2022-09-16T06:01:35.487Z,40.71
2022-09-16T06:04:04.589Z,39.61
2022-09-16T06:06:36.836Z,39.27
2022-09-16T06:09:11.998Z,38.46
2022-09-16T06:11:41.230Z,38.94
2022-09-16T06:14:08.868Z,38.58
2022-09-16T06:16:36.607Z,39.27
2022-09-16T06:19:07.149Z,39.47
2022-09-16T06:21:33.760Z,39.34
2022-09-16T06:24:00.452Z,39.47
2022-09-16T06:26:27.703Z,39.81
2022-09-16T06:28:57.635Z,38.85
2022-09-16T06:31:26.478Z,39.50
2022-09-16T06:33:56.194Z,39.31
2022-09-16T06:36:26.579Z,38.27
2022-09-16T06:38:53.301Z,38.42
2022-09-16T06:41:21.446Z,38.70
2022-09-16T06:43:49.018Z,39.10
2022-09-16T06:46:18.624Z,39.58
2022-09-16T06:48:48.337Z,39.33
2022-09-16T06:51:23.004Z,37.69
2022-09-16T06:53:51.424Z,37.65
2022-09-16T06:56:20.495Z,37.12
2022-09-16T06:58:49.340Z,37.26
2022-09-16T07:01:17.455Z,37.61
2022-09-16T07:03:46.300Z,37.39
2022-09-16T07:06:14.484Z,37.71
2022-09-16T07:08:42.341Z,37.23
2022-09-16T07:11:12.600Z,37.08
2022-09-16T07:13:40.301Z,37.02
2022-09-16T07:16:13.944Z,37.82
2022-09-16T07:18:41.813Z,37.47
2022-09-16T07:21:17.324Z,37.66
2022-09-16T07:23:45.473Z,36.73
2022-09-16T07:26:17.867Z,37.07
2022-09-16T07:28:47.125Z,37.05
2022-09-16T07:31:25.676Z,37.32
2022-09-16T07:33:53.892Z,37.43
2022-09-16T07:36:23.983Z,36.85
2022-09-16T07:38:51.523Z,36.67
2022-09-16T07:41:23.421Z,36.50
2022-09-16T07:43:50.800Z,37.35
2022-09-16T07:46:19.040Z,36.91
2022-09-16T07:48:47.931Z,36.68
2022-09-16T07:51:23.421Z,36.80
2022-09-16T07:53:55.095Z,36.87
2022-09-16T07:56:25.471Z,36.99
2022-09-16T07:58:54.157Z,37.57
2022-09-16T08:01:21.359Z,37.14
2022-09-16T08:03:48.656Z,37.51
2022-09-16T08:06:17.999Z,35.44
2022-09-16T08:08:45.463Z,35.41
2022-09-16T08:11:14.405Z,36.48
2022-09-16T08:13:43.008Z,36.72
2022-09-16T08:16:13.437Z,36.97
2022-09-16T08:18:40.697Z,36.06
2022-09-16T08:21:08.789Z,35.82
2022-09-16T08:23:36.476Z,35.62
2022-09-16T08:26:04.297Z,35.59
2022-09-16T08:28:40.033Z,35.54
2022-09-16T08:31:19.955Z,36.34
2022-09-16T08:33:47.245Z,36.08
2022-09-16T08:36:21.051Z,36.53
2022-09-16T08:38:49.606Z,35.42
2022-09-16T08:41:46.692Z,36.17
2022-09-16T08:45:11.808Z,35.24
2022-09-16T08:48:08.085Z,35.94
2022-09-16T08:50:38.302Z,36.10
2022-09-16T08:53:14.785Z,37.28
2022-09-16T08:55:46.834Z,36.18
2022-09-16T08:58:17.737Z,35.23
2022-09-16T09:00:47.389Z,36.18
2022-09-16T09:03:22.015Z,36.22
2022-09-16T09:05:54.524Z,35.11
2022-09-16T09:08:38.572Z,35.63
2022-09-16T09:11:17.223Z,35.80
2022-09-16T09:13:53.124Z,35.52
2022-09-16T09:16:48.832Z,35.33
2022-09-16T09:19:36.728Z,35.16
2022-09-16T09:22:09.798Z,35.17
2022-09-16T09:24:51.514Z,35.26
2022-09-16T09:27:39.097Z,35.32
2022-09-16T09:30:14.533Z,35.02
2022-09-16T09:32:59.364Z,35.44
2022-09-16T09:35:47.282Z,36.18
2022-09-16T09:38:31.859Z,35.74
2022-09-16T09:41:05.822Z,35.90
2022-09-16T09:43:41.442Z,35.62
2022-09-16T09:46:10.526Z,35.61
2022-09-16T09:48:41.883Z,35.54
2022-09-16T09:51:21.099Z,35.32
2022-09-16T09:53:53.612Z,35.11
2022-09-16T09:56:35.373Z,36.35
2022-09-16T09:59:44.919Z,38.02
2022-09-16T10:02:20.729Z,38.58
2022-09-16T10:04:48.205Z,39.96
2022-09-16T10:07:18.478Z,40.81
2022-09-16T10:09:58.024Z,41.11
2022-09-16T10:12:43.047Z,42.61
2022-09-16T10:15:34.303Z,43.44
2022-09-16T10:18:03.048Z,43.16
2022-09-16T10:20:34.997Z,45.36
2022-09-16T10:23:27.635Z,48.54
2022-09-16T10:26:20.707Z,51.93
2022-09-16T10:28:57.262Z,53.31
2022-09-16T10:31:29.316Z,55.09
2022-09-16T10:34:00.851Z,55.38
2022-09-16T10:36:32.782Z,54.39
2022-09-16T10:39:04.889Z,56.30
2022-09-16T10:41:42.410Z,56.99
2022-09-16T10:44:24.120Z,58.77
2022-09-16T10:47:02.853Z,59.33
2022-09-16T10:49:44.728Z,58.22
2022-09-16T10:52:21.676Z,61.07
2022-09-16T10:54:49.229Z,61.24
2022-09-16T10:57:35.238Z,60.62
2022-09-16T11:00:21.768Z,62.55
2022-09-16T11:03:06.484Z,62.33
2022-09-16T11:05:54.699Z,59.14
2022-09-16T11:08:24.416Z,57.67
2022-09-16T11:11:11.905Z,56.14
2022-09-16T11:13:38.699Z,54.64
2022-09-16T11:16:13.618Z,52.61
2022-09-16T11:19:00.483Z,51.81
2022-09-16T11:21:26.999Z,51.04
2022-09-16T11:24:10.684Z,50.87
2022-09-16T11:27:05.298Z,49.84
2022-09-16T11:29:42.760Z,49.18
2022-09-16T11:32:25.205Z,48.58
2022-09-16T11:35:17.744Z,47.81
2022-09-16T11:38:16.443Z,48.14
2022-09-16T11:40:45.911Z,48.20
2022-09-16T11:43:51.015Z,46.33
2022-09-16T11:46:36.485Z,45.26
2022-09-16T11:49:08.954Z,43.97
2022-09-16T11:51:47.806Z,44.22
2022-09-16T11:55:05.123Z,45.53
2022-09-16T11:57:37.256Z,44.01
2022-09-16T12:00:16.880Z,43.44
2022-09-16T12:03:10.613Z,43.83
2022-09-16T12:05:42.978Z,41.40
2022-09-16T12:08:44.608Z,42.27
2022-09-16T12:11:24.031Z,41.92
2022-09-16T12:14:05.453Z,40.79
2022-09-16T12:16:47.058Z,41.31
2022-09-16T12:19:22.226Z,40.98
2022-09-16T12:21:57.825Z,41.41
2022-09-16T12:24:31.026Z,41.58
2022-09-16T12:27:31.345Z,42.47
2022-09-16T12:30:02.810Z,44.11
2022-09-16T12:32:43.739Z,51.43
2022-09-16T12:35:36.720Z,51.23
2022-09-16T12:38:03.788Z,51.65
2022-09-16T12:40:50.592Z,52.19
2022-09-16T12:43:35.449Z,52.36
2022-09-16T12:46:08.138Z,52.49
2022-09-16T12:48:55.219Z,52.24
2022-09-16T12:51:50.366Z,52.04
2022-09-16T12:54:51.222Z,51.43
2022-09-16T12:57:55.753Z,52.51
2022-09-16T13:00:26.064Z,50.86
2022-09-16T13:02:57.667Z,49.69
2022-09-16T13:05:36.773Z,50.38
2022-09-16T13:08:18.997Z,51.49
2022-09-16T13:13:37.424Z,54.63
2022-09-16T13:16:06.681Z,57.60
2022-09-16T13:18:50.391Z,60.06
2022-09-16T13:21:28.057Z,58.39
2022-09-16T13:24:04.054Z,60.60
2022-09-16T13:26:42.217Z,60.53
2022-09-16T13:29:47.167Z,62.34
2022-09-16T13:32:49.010Z,61.08
2022-09-16T13:35:18.647Z,62.36
2022-09-16T13:37:46.773Z,61.96
2022-09-16T13:40:25.124Z,63.07
2022-09-16T13:43:03.518Z,63.19
2022-09-16T13:45:34.054Z,59.62
2022-09-16T13:48:23.341Z,59.19
2022-09-16T13:51:01.383Z,58.48
2022-09-16T13:53:34.728Z,61.01
2022-09-16T13:56:46.887Z,60.17
2022-09-16T13:59:20.480Z,64.83
2022-09-16T14:02:27.556Z,63.25
2022-09-16T14:05:04.391Z,62.63
2022-09-16T14:08:05.026Z,58.82
2022-09-16T14:10:56.800Z,57.84
2022-09-16T14:13:25.186Z,56.20
2022-09-16T14:15:56.429Z,57.29
2022-09-16T14:18:29.767Z,58.38
2022-09-16T14:21:03.692Z,58.90
2022-09-16T14:23:32.645Z,58.60
2022-09-16T14:26:34.935Z,57.29
2022-09-16T14:29:03.670Z,56.54
2022-09-16T14:31:32.584Z,55.13
2022-09-16T14:34:07.567Z,55.51
2022-09-16T14:36:37.956Z,54.05
2022-09-16T14:39:12.078Z,53.44
2022-09-16T14:41:46.136Z,53.76
2022-09-16T14:44:22.687Z,54.64
2022-09-16T14:47:28.369Z,56.44
2022-09-16T14:50:12.427Z,57.89
2022-09-16T14:52:39.209Z,58.25
2022-09-16T14:55:20.455Z,58.19
2022-09-16T14:57:47.405Z,57.83
2022-09-16T15:00:17.362Z,58.01
2022-09-16T15:02:49.991Z,57.83
2022-09-16T15:05:23.044Z,58.81
2022-09-16T15:08:12.604Z,58.33
2022-09-16T15:10:53.208Z,57.52
2022-09-16T15:13:24.404Z,57.30
2022-09-16T15:15:53.575Z,56.47
2022-09-16T15:18:28.771Z,57.48
2022-09-16T15:21:19.800Z,55.73
2022-09-16T15:23:52.214Z,55.73
2022-09-16T15:26:29.437Z,55.52
2022-09-16T15:28:59.117Z,54.73
2022-09-16T15:31:37.061Z,53.01
2022-09-16T15:34:22.927Z,53.00
2022-09-16T15:36:54.859Z,52.93
2022-09-16T15:39:32.987Z,52.91
2022-09-16T15:42:17.285Z,51.98
2022-09-16T15:44:50.003Z,53.00
2022-09-16T15:47:21.264Z,53.39
2022-09-16T15:49:53.023Z,54.77
2022-09-16T15:52:19.775Z,56.27
2022-09-16T15:54:56.179Z,57.52
2022-09-16T15:57:41.047Z,57.62
2022-09-16T16:00:16.274Z,58.31
2022-09-16T16:02:53.478Z,57.34
2022-09-16T16:05:30.178Z,56.57
2022-09-16T16:08:09.646Z,56.87
2022-09-16T16:10:36.744Z,58.25
2022-09-16T16:13:06.617Z,58.18
2022-09-16T16:15:39.430Z,57.60
2022-09-16T16:18:08.772Z,58.30
2022-09-16T16:20:37.248Z,57.64
2022-09-16T16:23:04.002Z,57.27
2022-09-16T16:25:32.356Z,60.00
2022-09-16T16:27:59.065Z,61.03
2022-09-16T16:30:25.739Z,58.82
2022-09-16T16:32:52.403Z,60.17
2022-09-16T16:35:18.967Z,63.27
2022-09-16T16:37:47.261Z,62.71
2022-09-16T16:40:15.370Z,64.24
2022-09-16T16:42:43.739Z,62.40
2022-09-16T16:45:14.157Z,62.92
2022-09-16T16:47:41.248Z,65.77
2022-09-16T16:50:08.211Z,59.58
2022-09-16T16:52:34.847Z,58.88
2022-09-16T16:55:01.671Z,58.22
2022-09-16T16:57:28.252Z,59.62
2022-09-16T16:59:54.884Z,58.45
2022-09-16T17:02:21.470Z,61.41
2022-09-16T17:04:48.173Z,58.27
2022-09-16T17:07:25.697Z,56.01
2022-09-16T17:09:54.161Z,52.12
2022-09-16T17:12:20.968Z,54.02
2022-09-16T17:14:47.784Z,55.87
2022-09-16T17:17:14.419Z,58.83
2022-09-16T17:19:41.025Z,60.92
2022-09-16T17:22:07.762Z,59.68
2022-09-16T17:24:34.835Z,61.42
2022-09-16T17:27:02.220Z,62.78
2022-09-16T17:29:29.133Z,65.81
2022-09-16T17:31:57.232Z,66.77
2022-09-16T17:34:26.396Z,67.08
2022-09-16T17:36:53.250Z,69.17
2022-09-16T17:39:22.822Z,71.34
2022-09-16T17:41:51.104Z,67.73
2022-09-16T17:44:19.008Z,65.75
2022-09-16T17:46:47.166Z,64.14
2022-09-16T17:49:20.259Z,63.96
2022-09-16T17:51:47.927Z,63.48
2022-09-16T17:54:15.182Z,65.91
2022-09-16T17:56:45.176Z,64.85
2022-09-16T17:59:13.608Z,66.37
2022-09-16T18:01:41.107Z,65.17
2022-09-16T18:04:08.227Z,69.62
2022-09-16T18:06:40.942Z,68.56
2022-09-16T18:09:07.707Z,66.28
2022-09-16T18:11:36.392Z,64.90
2022-09-16T18:14:05.119Z,64.22
2022-09-16T18:16:32.802Z,65.87
2022-09-16T18:19:02.195Z,68.64
2022-09-16T18:21:29.882Z,68.66
2022-09-16T18:23:59.358Z,68.52
2022-09-16T18:26:27.412Z,67.63
2022-09-16T18:29:12.581Z,65.88
2022-09-16T18:31:41.565Z,67.53
2022-09-16T18:34:08.575Z,66.25
2022-09-16T18:36:37.722Z,64.99
2022-09-16T18:39:06.051Z,64.21
2022-09-16T18:41:38.271Z,63.27
2022-09-16T18:44:16.308Z,63.89
2022-09-16T18:46:43.680Z,63.68
2022-09-16T18:49:12.784Z,63.80
2022-09-16T18:51:50.522Z,66.07
2022-09-16T18:54:25.971Z,64.82
2022-09-16T18:56:55.843Z,63.29
2022-09-16T18:59:24.555Z,64.42
2022-09-16T19:01:53.889Z,63.03
2022-09-16T19:04:27.886Z,62.41
2022-09-16T19:06:57.357Z,63.57
2022-09-16T19:09:24.375Z,62.67
2022-09-16T19:11:53.152Z,61.58
2022-09-16T19:14:22.452Z,62.17
2022-09-16T19:16:49.232Z,61.88
2022-09-16T19:19:16.130Z,61.72
2022-09-16T19:21:43.669Z,60.90
2022-09-16T19:24:14.358Z,60.28
2022-09-16T19:26:42.224Z,61.14
2022-09-16T19:29:09.829Z,60.05
2022-09-16T19:31:39.371Z,59.81
2022-09-16T19:34:06.864Z,59.84
2022-09-16T19:36:35.381Z,59.95
2022-09-16T19:39:02.809Z,59.41
2022-09-16T19:41:31.364Z,59.88
2022-09-16T19:44:01.146Z,58.63
2022-09-16T19:46:28.971Z,59.29
2022-09-16T19:48:55.871Z,59.15
2022-09-16T19:51:23.877Z,58.84
2022-09-16T19:53:52.426Z,58.22
2022-09-16T19:56:22.179Z,59.35
2022-09-16T19:58:50.368Z,59.93
2022-09-16T20:01:22.660Z,59.70
2022-09-16T20:03:52.479Z,59.89
2022-09-16T20:06:39.967Z,59.00
2022-09-16T20:09:11.541Z,58.54
2022-09-16T20:11:40.516Z,58.48
2022-09-16T20:14:13.575Z,58.28
2022-09-16T20:16:40.683Z,58.55
2022-09-16T20:19:13.588Z,60.37
2022-09-16T20:21:40.999Z,60.04
2022-09-16T20:24:13.697Z,59.62
2022-09-16T20:26:40.332Z,59.49
2022-09-16T20:29:07.096Z,59.57
2022-09-16T20:31:35.911Z,59.11
2022-09-16T20:34:03.623Z,59.48
2022-09-16T20:36:31.785Z,59.31
2022-09-16T20:38:59.901Z,59.84
2022-09-16T20:41:30.015Z,59.47
2022-09-16T20:43:57.323Z,59.53
2022-09-16T20:46:29.826Z,60.08
2022-09-16T20:48:58.610Z,60.34
2022-09-16T20:51:27.582Z,59.69
2022-09-16T20:54:07.697Z,61.17
2022-09-16T20:56:39.751Z,60.99
2022-09-16T20:59:13.216Z,60.86
2022-09-16T21:01:41.687Z,61.25
2022-09-16T21:04:15.641Z,63.20
2022-09-16T21:06:42.661Z,62.30
2022-09-16T21:09:12.155Z,61.84
2022-09-16T21:11:42.742Z,61.84
2022-09-16T21:14:09.368Z,61.74
2022-09-16T21:16:37.873Z,62.01
2022-09-16T21:19:09.307Z,62.58
2022-09-16T21:21:38.659Z,62.28
2022-09-16T21:24:07.288Z,62.57
2022-09-16T21:26:35.862Z,62.08
2022-09-16T21:29:08.862Z,62.38
2022-09-16T21:31:38.023Z,62.58
2022-09-16T21:34:07.045Z,62.52
2022-09-16T21:36:35.427Z,63.04
2022-09-16T21:39:02.235Z,64.50
2022-09-16T21:41:29.148Z,63.99
2022-09-16T21:43:57.471Z,64.03
2022-09-16T21:46:29.141Z,64.63
2022-09-16T21:49:02.344Z,65.13
2022-09-16T21:51:36.231Z,65.51
2022-09-16T21:54:04.566Z,65.90
2022-09-16T21:56:31.637Z,67.41
2022-09-16T21:58:59.174Z,67.40
2022-09-16T22:01:28.576Z,66.22
2022-09-16T22:03:58.170Z,66.01
2022-09-16T22:06:26.333Z,67.87
2022-09-16T22:08:58.830Z,66.64
2022-09-16T22:11:28.435Z,67.20
2022-09-16T22:13:56.656Z,66.59
2022-09-16T22:16:28.729Z,65.97
2022-09-16T22:18:55.534Z,65.61
2022-09-16T22:21:23.285Z,64.80
2022-09-16T22:23:50.519Z,64.56
2022-09-16T22:26:19.453Z,63.85
2022-09-16T22:28:46.387Z,64.38
2022-09-16T22:31:16.215Z,64.47
2022-09-16T22:33:44.595Z,64.22
2022-09-16T22:36:17.013Z,64.19
2022-09-16T22:38:48.113Z,66.50
2022-09-16T22:41:16.038Z,69.61
2022-09-16T22:43:45.180Z,68.88
2022-09-16T22:46:12.022Z,67.52
2022-09-16T22:48:40.085Z,67.43
2022-09-16T22:51:07.807Z,66.52
2022-09-16T22:53:34.969Z,65.84
2022-09-16T22:56:07.184Z,65.92
2022-09-16T22:58:34.241Z,65.04
2022-09-16T23:01:09.801Z,64.40
2022-09-16T23:03:36.730Z,64.89
2022-09-16T23:06:06.049Z,65.23
2022-09-16T23:08:36.022Z,64.89
2022-09-16T23:11:04.340Z,65.43
2022-09-16T23:13:36.041Z,66.05
2022-09-16T23:16:05.596Z,65.54
2022-09-16T23:18:34.670Z,66.89
2022-09-16T23:21:04.199Z,66.12
2022-09-16T23:23:32.251Z,68.36
2022-09-16T23:26:03.709Z,67.22
2022-09-16T23:28:31.013Z,68.96
2022-09-16T23:31:05.423Z,67.49
2022-09-16T23:33:33.004Z,66.17
2022-09-16T23:36:00.440Z,65.97
2022-09-16T23:38:27.725Z,64.98
2022-09-16T23:40:54.764Z,63.95
2022-09-16T23:43:21.756Z,64.12
2022-09-16T23:45:48.496Z,63.50
2022-09-16T23:48:15.219Z,63.99
2022-09-16T23:50:44.223Z,65.16
2022-09-16T23:53:11.305Z,64.77
2022-09-16T23:55:42.291Z,65.55
2022-09-16T23:58:09.412Z,65.98
